createdAt,value
2017-11-09T00:00:05.775Z,84.39
2017-11-09T00:00:46.336Z,84.58
2017-11-09T00:01:26.918Z,84.29
2017-11-09T00:02:07.475Z,84.58
2017-11-09T00:02:48.029Z,84.48
2017-11-09T00:03:28.588Z,84.01
2017-11-09T00:04:09.161Z,84.58
2017-11-09T00:04:49.740Z,84.1
2017-11-09T00:05:30.308Z,84.29
2017-11-09T00:06:10.896Z,84.2
2017-11-09T00:06:51.477Z,84.2
2017-11-09T00:07:32.037Z,84.67
2017-11-09T00:08:12.604Z,84.67
2017-11-09T00:08:53.176Z,84.58
2017-11-09T00:09:33.779Z,84.58
2017-11-09T00:10:14.352Z,84.29
2017-11-09T00:10:54.969Z,84.48
2017-11-09T00:11:35.549Z,84.48
2017-11-09T00:12:16.101Z,84.01
2017-11-09T00:12:56.705Z,84.58
2017-11-09T00:13:37.264Z,84.95
2017-11-09T00:14:17.826Z,84.77
2017-11-09T00:14:58.405Z,85.05
2017-11-09T00:15:38.979Z,84.77
2017-11-09T00:16:19.542Z,84.67
2017-11-09T00:17:00.122Z,84.67
2017-11-09T00:17:40.692Z,84.86
2017-11-09T00:18:21.258Z,84.77
2017-11-09T00:19:01.815Z,84.67
2017-11-09T00:19:42.385Z,84.95
2017-11-09T00:20:22.967Z,84.48
2017-11-09T00:21:03.564Z,84.29
2017-11-09T00:21:44.106Z,84.29
2017-11-09T00:22:24.706Z,84.2
2017-11-09T00:23:05.310Z,84.48
2017-11-09T00:23:45.889Z,84.29
2017-11-09T00:24:26.454Z,84.58
2017-11-09T00:25:07.006Z,84.67
2017-11-09T00:25:47.565Z,84.67
2017-11-09T00:26:28.153Z,84.58
2017-11-09T00:27:08.738Z,85.15
2017-11-09T00:27:49.306Z,84.86
2017-11-09T00:28:29.875Z,84.95
2017-11-09T00:29:10.431Z,85.24
2017-11-09T00:29:51.031Z,85.05
2017-11-09T00:30:31.590Z,85.24
2017-11-09T00:31:12.175Z,85.15
2017-11-09T00:31:52.739Z,85.24
2017-11-09T00:32:33.314Z,85.05
2017-11-09T00:33:13.879Z,84.95
2017-11-09T00:33:54.459Z,84.95
2017-11-09T00:34:35.033Z,85.15
2017-11-09T00:35:15.623Z,85.05
2017-11-09T00:35:56.196Z,84.86
2017-11-09T00:36:37.114Z,84.48
2017-11-09T00:37:17.674Z,84.48
2017-11-09T00:37:58.237Z,84.67
2017-11-09T00:38:38.798Z,84.39
2017-11-09T00:39:19.368Z,84.95
2017-11-09T00:39:59.939Z,84.86
2017-11-09T00:40:40.528Z,85.24
2017-11-09T00:41:21.077Z,84.77
2017-11-09T00:42:01.645Z,85.05
2017-11-09T00:42:42.190Z,84.86
2017-11-09T00:43:22.754Z,85.05
2017-11-09T00:44:03.322Z,85.05
2017-11-09T00:44:43.897Z,85.15
2017-11-09T00:45:24.446Z,84.67
2017-11-09T00:46:05.010Z,84.77
2017-11-09T00:46:45.565Z,85.05
2017-11-09T00:47:26.137Z,84.48
2017-11-09T00:48:06.704Z,84.58
2017-11-09T00:48:47.261Z,84.58
2017-11-09T00:49:27.830Z,84.48
2017-11-09T00:50:08.472Z,84.67
2017-11-09T00:50:49.044Z,84.48
2017-11-09T00:51:29.606Z,84.86
2017-11-09T00:52:10.174Z,84.95
2017-11-09T00:52:50.751Z,84.95
2017-11-09T00:53:31.335Z,85.05
2017-11-09T00:54:11.883Z,84.95
2017-11-09T00:54:52.444Z,85.15
2017-11-09T00:55:33.006Z,84.77
2017-11-09T00:56:13.584Z,85.15
2017-11-09T00:56:54.160Z,85.05
2017-11-09T00:57:34.725Z,84.86
2017-11-09T00:58:15.302Z,85.05
2017-11-09T00:58:55.872Z,85.15
2017-11-09T00:59:36.471Z,84.86
2017-11-09T01:00:17.033Z,85.05
2017-11-09T01:00:57.592Z,84.48
2017-11-09T01:01:38.165Z,84.29
2017-11-09T01:02:18.729Z,84.67
2017-11-09T01:02:59.303Z,84.86
2017-11-09T01:03:39.866Z,84.48
2017-11-09T01:04:20.441Z,84.67
2017-11-09T01:05:01.000Z,84.48
2017-11-09T01:05:41.584Z,84.67
2017-11-09T01:06:22.158Z,84.48
2017-11-09T01:07:02.718Z,84.48
2017-11-09T01:07:43.305Z,84.86
2017-11-09T01:08:23.856Z,84.86
2017-11-09T01:09:04.434Z,84.95
2017-11-09T01:09:44.997Z,85.62
2017-11-09T01:10:25.570Z,85.43
2017-11-09T01:11:06.148Z,85.43
2017-11-09T01:11:46.699Z,85.43
2017-11-09T01:12:27.326Z,85.53
2017-11-09T01:13:07.881Z,85.53
2017-11-09T01:13:48.458Z,85.34
2017-11-09T01:14:29.039Z,84.95
2017-11-09T01:15:09.624Z,85.15
2017-11-09T01:15:50.200Z,84.95
2017-11-09T01:16:30.806Z,85.15
2017-11-09T01:17:11.369Z,85.05
2017-11-09T01:17:51.941Z,85.15
2017-11-09T01:18:32.501Z,85.05
2017-11-09T01:19:13.060Z,84.95
2017-11-09T01:19:53.613Z,85.62
2017-11-09T01:20:34.176Z,85.62
2017-11-09T01:21:14.773Z,85.15
2017-11-09T01:21:55.350Z,85.15
2017-11-09T01:22:35.920Z,84.95
2017-11-09T01:23:16.510Z,85.24
2017-11-09T01:23:57.077Z,84.77
2017-11-09T01:24:37.648Z,84.95
2017-11-09T01:25:18.231Z,85.15
2017-11-09T01:25:58.807Z,84.58
2017-11-09T01:26:39.374Z,84.86
2017-11-09T01:27:19.948Z,85.15
2017-11-09T01:28:00.514Z,85.15
2017-11-09T01:28:41.122Z,85.15
2017-11-09T01:29:21.685Z,84.95
2017-11-09T01:30:02.257Z,85.15
2017-11-09T01:30:42.854Z,84.86
2017-11-09T01:31:23.437Z,85.24
2017-11-09T01:32:04.025Z,85.15
2017-11-09T01:32:44.609Z,84.95
2017-11-09T01:33:25.197Z,85.34
2017-11-09T01:34:05.771Z,85.05
2017-11-09T01:34:47.044Z,84.95
2017-11-09T01:35:27.624Z,84.67
2017-11-09T01:36:08.208Z,84.95
2017-11-09T01:36:48.766Z,84.95
2017-11-09T01:37:29.344Z,85.15
2017-11-09T01:38:09.925Z,85.34
2017-11-09T01:38:50.496Z,85.15
2017-11-09T01:39:31.065Z,85.15
2017-11-09T01:40:11.647Z,85.05
2017-11-09T01:40:52.216Z,85.15
2017-11-09T01:41:32.793Z,85.34
2017-11-09T01:42:13.373Z,85.62
2017-11-09T01:42:53.956Z,85.81
2017-11-09T01:43:34.511Z,85.53
2017-11-09T01:44:15.067Z,85.53
2017-11-09T01:44:55.651Z,85.43
2017-11-09T01:45:36.273Z,85.62
2017-11-09T01:46:16.847Z,85.24
2017-11-09T01:46:57.419Z,85.15
2017-11-09T01:47:38.006Z,85.05
2017-11-09T01:48:18.596Z,85.05
2017-11-09T01:48:59.163Z,85.24
2017-11-09T01:49:39.774Z,84.95
2017-11-09T01:50:20.327Z,85.15
2017-11-09T01:51:00.926Z,85.15
2017-11-09T01:51:41.479Z,85.15
2017-11-09T01:52:22.064Z,85.24
2017-11-09T01:53:02.624Z,85.15
2017-11-09T01:53:43.188Z,85.15
2017-11-09T01:54:23.772Z,84.67
2017-11-09T01:55:04.365Z,84.67
2017-11-09T01:55:44.945Z,84.67
2017-11-09T01:56:25.507Z,84.29
2017-11-09T01:57:06.073Z,84.01
2017-11-09T01:57:46.681Z,84.67
2017-11-09T01:58:27.272Z,84.77
2017-11-09T01:59:07.875Z,84.67
2017-11-09T01:59:48.459Z,84.95
2017-11-09T02:00:29.010Z,85.05
2017-11-09T02:01:09.569Z,84.86
2017-11-09T02:01:50.147Z,84.86
2017-11-09T02:02:30.718Z,85.34
2017-11-09T02:03:11.289Z,85.05
2017-11-09T02:03:51.883Z,85.72
2017-11-09T02:04:32.450Z,85.43
2017-11-09T02:05:13.021Z,85.43
2017-11-09T02:05:53.624Z,85.43
2017-11-09T02:06:34.237Z,85.53
2017-11-09T02:07:14.797Z,85.62
2017-11-09T02:07:55.366Z,85.53
2017-11-09T02:08:35.937Z,85.05
2017-11-09T02:09:16.505Z,85.05
2017-11-09T02:09:57.129Z,85.53
2017-11-09T02:10:37.708Z,85.05
2017-11-09T02:11:18.259Z,84.95
2017-11-09T02:11:58.857Z,85.24
2017-11-09T02:12:39.446Z,85.53
2017-11-09T02:13:20.015Z,85.62
2017-11-09T02:14:00.573Z,85.53
2017-11-09T02:14:41.208Z,85.43
2017-11-09T02:15:21.781Z,85.62
2017-11-09T02:16:02.326Z,85.05
2017-11-09T02:16:42.949Z,84.95
2017-11-09T02:17:23.523Z,84.86
2017-11-09T02:18:04.092Z,84.95
2017-11-09T02:18:44.665Z,85.05
2017-11-09T02:19:25.270Z,85.15
2017-11-09T02:20:05.874Z,85.15
2017-11-09T02:20:46.440Z,84.95
2017-11-09T02:21:27.038Z,85.15
2017-11-09T02:22:07.615Z,84.95
2017-11-09T02:22:48.179Z,85.34
2017-11-09T02:23:28.740Z,85.15
2017-11-09T02:24:09.313Z,85.05
2017-11-09T02:24:49.883Z,85.62
2017-11-09T02:25:30.505Z,85.62
2017-11-09T02:26:11.076Z,85.62
2017-11-09T02:26:51.635Z,85.62
2017-11-09T02:27:32.208Z,85.43
2017-11-09T02:28:12.811Z,85.15
2017-11-09T02:28:53.397Z,85.34
2017-11-09T02:29:33.934Z,84.95
2017-11-09T02:30:14.547Z,85.15
2017-11-09T02:30:55.120Z,84.95
2017-11-09T02:31:35.697Z,85.24
2017-11-09T02:32:16.277Z,85.15
2017-11-09T02:32:56.864Z,84.67
2017-11-09T02:33:37.435Z,84.95
2017-11-09T02:34:18.021Z,84.95
2017-11-09T02:34:58.610Z,85.15
2017-11-09T02:35:39.183Z,85.15
2017-11-09T02:36:19.753Z,85.15
2017-11-09T02:37:00.332Z,84.86
2017-11-09T02:37:40.930Z,84.86
2017-11-09T02:38:21.516Z,84.86
2017-11-09T02:39:02.097Z,85.15
2017-11-09T02:39:42.652Z,85.05
2017-11-09T02:40:23.240Z,84.86
2017-11-09T02:41:03.812Z,85.05
2017-11-09T02:41:44.385Z,85.05
2017-11-09T02:42:24.958Z,85.05
2017-11-09T02:43:05.535Z,85.05
2017-11-09T02:43:46.132Z,85.15
2017-11-09T02:44:26.708Z,85.05
2017-11-09T02:45:07.296Z,85.15
2017-11-09T02:45:47.863Z,85.15
2017-11-09T02:46:28.436Z,85.05
2017-11-09T02:47:09.016Z,85.05
2017-11-09T02:47:49.684Z,84.67
2017-11-09T02:48:30.254Z,84.95
2017-11-09T02:49:10.862Z,85.05
2017-11-09T02:49:51.454Z,85.15
2017-11-09T02:50:32.019Z,85.15
2017-11-09T02:51:12.575Z,84.86
2017-11-09T02:51:53.175Z,84.67
2017-11-09T02:52:33.743Z,84.77
2017-11-09T02:53:14.321Z,84.77
2017-11-09T02:53:54.892Z,84.29
2017-11-09T02:54:35.492Z,84.39
2017-11-09T02:55:16.057Z,84.01
2017-11-09T02:55:56.639Z,84.1
2017-11-09T02:56:37.221Z,84.48
2017-11-09T02:57:17.762Z,84.39
2017-11-09T02:57:58.341Z,84.48
2017-11-09T02:58:38.917Z,84.58
2017-11-09T02:59:19.492Z,84.29
2017-11-09T03:00:00.081Z,84.77
2017-11-09T03:00:40.631Z,84.58
2017-11-09T03:01:21.206Z,84.67
2017-11-09T03:02:01.827Z,84.95
2017-11-09T03:02:42.409Z,84.67
2017-11-09T03:03:22.978Z,84.48
2017-11-09T03:04:03.547Z,84.86
2017-11-09T03:04:44.132Z,84.86
2017-11-09T03:05:24.735Z,84.58
2017-11-09T03:06:05.320Z,85.05
2017-11-09T03:06:45.897Z,84.95
2017-11-09T03:07:26.467Z,84.67
2017-11-09T03:08:07.049Z,84.67
2017-11-09T03:08:47.635Z,84.48
2017-11-09T03:09:28.195Z,84.67
2017-11-09T03:10:08.785Z,84.67
2017-11-09T03:10:49.357Z,85.15
2017-11-09T03:11:29.915Z,84.86
2017-11-09T03:12:10.474Z,85.15
2017-11-09T03:12:51.047Z,84.86
2017-11-09T03:13:31.608Z,84.86
2017-11-09T03:14:12.194Z,84.77
2017-11-09T03:14:52.751Z,85.15
2017-11-09T03:15:33.334Z,84.77
2017-11-09T03:16:13.892Z,85.24
2017-11-09T03:16:54.463Z,85.05
2017-11-09T03:17:35.051Z,84.95
2017-11-09T03:18:15.637Z,84.86
2017-11-09T03:18:56.210Z,84.77
2017-11-09T03:19:36.763Z,85.05
2017-11-09T03:20:17.343Z,84.95
2017-11-09T03:20:57.906Z,84.95
2017-11-09T03:21:38.488Z,85.15
2017-11-09T03:22:19.070Z,84.95
2017-11-09T03:22:59.619Z,85.15
2017-11-09T03:23:40.205Z,85.24
2017-11-09T03:24:20.852Z,85.24
2017-11-09T03:25:01.423Z,84.77
2017-11-09T03:25:42.002Z,85.43
2017-11-09T03:26:22.572Z,85.53
2017-11-09T03:27:03.131Z,85.43
2017-11-09T03:27:43.678Z,85.62
2017-11-09T03:28:24.246Z,85.15
2017-11-09T03:29:04.804Z,85.15
2017-11-09T03:29:45.369Z,85.15
2017-11-09T03:30:26.181Z,84.95
2017-11-09T03:31:06.738Z,85.15
2017-11-09T03:31:47.308Z,85.24
2017-11-09T03:32:27.873Z,85.24
2017-11-09T03:33:08.456Z,85.34
2017-11-09T03:33:49.038Z,85.05
2017-11-09T03:34:29.597Z,85.62
2017-11-09T03:35:10.213Z,85.05
2017-11-09T03:35:50.774Z,85.15
2017-11-09T03:36:31.340Z,84.95
2017-11-09T03:37:11.897Z,85.05
2017-11-09T03:37:52.465Z,84.95
2017-11-09T03:38:33.034Z,85.53
2017-11-09T03:39:13.609Z,85.43
2017-11-09T03:39:54.167Z,85.81
2017-11-09T03:40:34.731Z,85.62
2017-11-09T03:41:15.294Z,86.19
2017-11-09T03:41:55.851Z,86
2017-11-09T03:42:36.478Z,85.72
2017-11-09T03:43:17.049Z,85.34
2017-11-09T03:43:57.613Z,85.53
2017-11-09T03:44:38.193Z,85.43
2017-11-09T03:45:18.751Z,85.62
2017-11-09T03:45:59.313Z,85.53
2017-11-09T03:46:39.880Z,85.43
2017-11-09T03:47:20.464Z,85.43
2017-11-09T03:48:01.030Z,85.24
2017-11-09T03:48:41.609Z,85.62
2017-11-09T03:49:22.205Z,85.62
2017-11-09T03:50:02.759Z,85.62
2017-11-09T03:50:43.318Z,85.43
2017-11-09T03:51:23.898Z,85.53
2017-11-09T03:52:04.478Z,85.43
2017-11-09T03:52:45.060Z,85.53
2017-11-09T03:53:25.637Z,85.53
2017-11-09T03:54:06.213Z,85.53
2017-11-09T03:54:46.774Z,85.62
2017-11-09T03:55:27.338Z,85.62
2017-11-09T03:56:07.904Z,85.53
2017-11-09T03:56:48.471Z,85.62
2017-11-09T03:57:29.038Z,85.53
2017-11-09T03:58:09.596Z,85.62
2017-11-09T03:58:50.155Z,85.53
2017-11-09T03:59:30.738Z,85.72
2017-11-09T04:00:11.307Z,84.95
2017-11-09T04:00:51.873Z,85.05
2017-11-09T04:01:32.441Z,84.86
2017-11-09T04:02:13.004Z,85.53
2017-11-09T04:02:53.564Z,85.53
2017-11-09T04:03:34.161Z,85.53
2017-11-09T04:04:14.698Z,85.05
2017-11-09T04:04:55.267Z,84.95
2017-11-09T04:05:35.832Z,85.53
2017-11-09T04:06:16.400Z,85.43
2017-11-09T04:06:56.966Z,85.62
2017-11-09T04:07:37.590Z,85.72
2017-11-09T04:08:18.141Z,85.62
2017-11-09T04:08:58.710Z,84.95
2017-11-09T04:09:39.257Z,85.15
2017-11-09T04:10:19.833Z,85.05
2017-11-09T04:11:00.408Z,85.15
2017-11-09T04:11:40.974Z,84.95
2017-11-09T04:12:21.537Z,85.15
2017-11-09T04:13:02.110Z,85.34
2017-11-09T04:13:42.678Z,84.95
2017-11-09T04:14:23.294Z,85.62
2017-11-09T04:15:03.880Z,85.34
2017-11-09T04:15:44.469Z,85.53
2017-11-09T04:16:25.050Z,85.53
2017-11-09T04:17:05.595Z,85.62
2017-11-09T04:17:46.193Z,85.43
2017-11-09T04:18:26.750Z,85.53
2017-11-09T04:19:07.312Z,85.34
2017-11-09T04:19:47.885Z,85.43
2017-11-09T04:20:28.447Z,85.34
2017-11-09T04:21:09.008Z,85.24
2017-11-09T04:21:49.598Z,85.24
2017-11-09T04:22:30.200Z,85.53
2017-11-09T04:23:10.763Z,85.53
2017-11-09T04:23:51.308Z,85.24
2017-11-09T04:24:31.886Z,85.62
2017-11-09T04:25:12.455Z,85.62
2017-11-09T04:25:53.012Z,85.15
2017-11-09T04:26:33.576Z,84.95
2017-11-09T04:27:14.131Z,85.15
2017-11-09T04:27:54.709Z,85.24
2017-11-09T04:28:35.288Z,85.05
2017-11-09T04:29:15.847Z,85.62
2017-11-09T04:29:56.404Z,85.62
2017-11-09T04:30:36.960Z,85.62
2017-11-09T04:31:17.522Z,85.72
2017-11-09T04:31:58.083Z,85.24
2017-11-09T04:32:38.652Z,85.15
2017-11-09T04:33:19.215Z,85.53
2017-11-09T04:33:59.795Z,85.15
2017-11-09T04:34:40.378Z,84.86
2017-11-09T04:35:20.952Z,85.34
2017-11-09T04:36:01.537Z,85.15
2017-11-09T04:36:42.098Z,85.24
2017-11-09T04:37:22.677Z,85.15
2017-11-09T04:38:03.233Z,84.86
2017-11-09T04:38:43.804Z,85.05
2017-11-09T04:39:24.377Z,84.77
2017-11-09T04:40:04.964Z,85.05
2017-11-09T04:40:45.547Z,84.95
2017-11-09T04:41:26.128Z,84.86
2017-11-09T04:42:06.703Z,84.67
2017-11-09T04:42:47.268Z,85.05
2017-11-09T04:43:27.846Z,85.24
2017-11-09T04:44:08.439Z,84.95
2017-11-09T04:44:49.013Z,85.24
2017-11-09T04:45:29.587Z,84.67
2017-11-09T04:46:10.182Z,85.24
2017-11-09T04:46:50.743Z,84.95
2017-11-09T04:47:31.309Z,84.67
2017-11-09T04:48:11.886Z,85.05
2017-11-09T04:48:52.480Z,84.67
2017-11-09T04:49:33.066Z,84.67
2017-11-09T04:50:13.619Z,84.67
2017-11-09T04:50:54.187Z,84.67
2017-11-09T04:51:34.792Z,84.67
2017-11-09T04:52:15.403Z,84.67
2017-11-09T04:52:55.988Z,84.86
2017-11-09T04:53:36.557Z,84.39
2017-11-09T04:54:17.113Z,84.95
2017-11-09T04:54:57.672Z,85.15
2017-11-09T04:55:38.237Z,84.95
2017-11-09T04:56:18.814Z,85.15
2017-11-09T04:56:59.396Z,85.15
2017-11-09T04:57:39.976Z,84.95
2017-11-09T04:58:20.522Z,84.77
2017-11-09T04:59:01.083Z,84.77
2017-11-09T04:59:41.671Z,84.86
2017-11-09T05:00:22.230Z,84.95
2017-11-09T05:01:02.821Z,84.67
2017-11-09T05:01:43.392Z,84.77
2017-11-09T05:02:23.973Z,85.15
2017-11-09T05:03:04.536Z,85.15
2017-11-09T05:03:45.115Z,84.86
2017-11-09T05:04:25.728Z,85.34
2017-11-09T05:05:06.272Z,85.15
2017-11-09T05:05:46.827Z,85.15
2017-11-09T05:06:27.398Z,84.95
2017-11-09T05:07:07.971Z,84.67
2017-11-09T05:07:48.549Z,84.86
2017-11-09T05:08:29.106Z,84.77
2017-11-09T05:09:09.663Z,84.86
2017-11-09T05:09:50.222Z,85.15
2017-11-09T05:10:30.799Z,84.86
2017-11-09T05:11:11.355Z,85.05
2017-11-09T05:11:51.930Z,84.67
2017-11-09T05:12:32.689Z,84.77
2017-11-09T05:13:13.611Z,84.67
2017-11-09T05:13:54.198Z,84.58
2017-11-09T05:14:34.775Z,84.77
2017-11-09T05:15:15.503Z,84.67
2017-11-09T05:15:56.120Z,84.58
2017-11-09T05:16:36.921Z,84.58
2017-11-09T05:17:17.539Z,84.77
2017-11-09T05:17:58.098Z,84.48
2017-11-09T05:18:38.755Z,84.58
2017-11-09T05:19:19.310Z,84.67
2017-11-09T05:19:59.900Z,84.86
2017-11-09T05:20:40.487Z,84.67
2017-11-09T05:21:21.052Z,83.82
2017-11-09T05:22:01.621Z,84.39
2017-11-09T05:22:42.191Z,84.48
2017-11-09T05:23:22.758Z,84.48
2017-11-09T05:24:03.330Z,84.48
2017-11-09T05:24:43.900Z,84.39
2017-11-09T05:25:24.462Z,84.2
2017-11-09T05:26:05.035Z,84.29
2017-11-09T05:26:45.613Z,84.29
2017-11-09T05:27:26.197Z,84.48
2017-11-09T05:28:06.771Z,84.39
2017-11-09T05:28:47.320Z,84.2
2017-11-09T05:29:27.881Z,84.29
2017-11-09T05:30:08.455Z,84.48
2017-11-09T05:30:49.022Z,84.29
2017-11-09T05:31:29.577Z,84.2
2017-11-09T05:32:10.154Z,84.29
2017-11-09T05:32:50.719Z,84.29
2017-11-09T05:33:31.282Z,84.48
2017-11-09T05:34:11.865Z,84.39
2017-11-09T05:34:52.441Z,84.29
2017-11-09T05:35:33.020Z,84.39
2017-11-09T05:36:13.577Z,84.48
2017-11-09T05:36:54.204Z,84.1
2017-11-09T05:37:34.786Z,84.29
2017-11-09T05:38:15.363Z,84.2
2017-11-09T05:38:55.924Z,84.29
2017-11-09T05:39:36.498Z,84.29
2017-11-09T05:40:17.064Z,84.39
2017-11-09T05:40:57.632Z,84.29
2017-11-09T05:41:38.220Z,84.39
2017-11-09T05:42:18.779Z,84.29
2017-11-09T05:42:59.349Z,84.48
2017-11-09T05:43:39.940Z,84.48
2017-11-09T05:44:21.502Z,84.77
2017-11-09T05:45:02.082Z,84.77
2017-11-09T05:45:42.673Z,84.77
2017-11-09T05:46:23.242Z,84.58
2017-11-09T05:47:03.824Z,84.77
2017-11-09T05:47:44.383Z,84.67
2017-11-09T05:48:24.964Z,84.67
2017-11-09T05:49:05.518Z,84.67
2017-11-09T05:49:46.088Z,84.58
2017-11-09T05:50:26.697Z,84.58
2017-11-09T05:51:07.295Z,84.58
2017-11-09T05:51:47.881Z,84.48
2017-11-09T05:52:28.469Z,84.67
2017-11-09T05:53:09.017Z,84.77
2017-11-09T05:53:49.576Z,84.48
2017-11-09T05:54:30.141Z,84.29
2017-11-09T05:55:10.708Z,84.48
2017-11-09T05:55:51.269Z,84.33
2017-11-09T05:56:31.841Z,84.67
2017-11-09T05:57:12.407Z,84.52
2017-11-09T05:57:53.010Z,84.67
2017-11-09T05:58:33.584Z,84.67
2017-11-09T05:59:14.173Z,84.81
2017-11-09T05:59:54.756Z,84.58
2017-11-09T06:00:35.340Z,84.39
2017-11-09T06:01:15.943Z,84.2
2017-11-09T06:01:56.530Z,84.29
2017-11-09T06:02:37.113Z,84.52
2017-11-09T06:03:17.675Z,84.52
2017-11-09T06:03:58.248Z,84.48
2017-11-09T06:04:38.803Z,84.52
2017-11-09T06:05:19.368Z,84.43
2017-11-09T06:05:59.927Z,84.24
2017-11-09T06:06:40.498Z,84.33
2017-11-09T06:07:21.061Z,84.62
2017-11-09T06:08:01.653Z,84.24
2017-11-09T06:08:42.222Z,84.52
2017-11-09T06:09:22.794Z,84.52
2017-11-09T06:10:03.353Z,84.43
2017-11-09T06:10:43.948Z,84.33
2017-11-09T06:11:24.524Z,84.43
2017-11-09T06:12:05.106Z,84.33
2017-11-09T06:12:45.692Z,84.29
2017-11-09T06:13:26.268Z,84.14
2017-11-09T06:14:06.855Z,83.86
2017-11-09T06:14:47.452Z,83.62
2017-11-09T06:15:28.025Z,84.43
2017-11-09T06:16:08.585Z,84.05
2017-11-09T06:16:49.169Z,84.05
2017-11-09T06:17:29.733Z,84.05
2017-11-09T06:18:10.302Z,84.01
2017-11-09T06:18:50.889Z,84.01
2017-11-09T06:19:31.469Z,83.95
2017-11-09T06:20:12.023Z,84.14
2017-11-09T06:20:52.599Z,84.81
2017-11-09T06:21:33.191Z,84.48
2017-11-09T06:22:13.733Z,84.48
2017-11-09T06:22:54.309Z,84.48
2017-11-09T06:23:34.891Z,84.33
2017-11-09T06:24:15.461Z,87.28
2017-11-09T06:24:56.032Z,90.7
2017-11-09T06:25:36.611Z,92.89
2017-11-09T06:26:17.174Z,94.22
2017-11-09T06:26:57.743Z,95.12
2017-11-09T06:27:38.318Z,93.98
2017-11-09T06:28:18.888Z,92.18
2017-11-09T06:28:59.454Z,92.7
2017-11-09T06:29:40.019Z,92.6
2017-11-09T06:30:20.584Z,92.03
2017-11-09T06:31:01.149Z,92.22
2017-11-09T06:31:41.725Z,90.42
2017-11-09T06:32:22.286Z,89.79
2017-11-09T06:33:02.848Z,89.51
2017-11-09T06:33:43.436Z,88.46
2017-11-09T06:34:23.997Z,87.41
2017-11-09T06:35:04.560Z,86.65
2017-11-09T06:35:45.116Z,85.64
2017-11-09T06:36:25.702Z,84.69
2017-11-09T06:37:06.280Z,84.03
2017-11-09T06:37:46.839Z,82.69
2017-11-09T06:38:27.477Z,82.31
2017-11-09T06:39:08.049Z,82.41
2017-11-09T06:39:48.630Z,82.17
2017-11-09T06:40:29.211Z,81.4
2017-11-09T06:41:09.785Z,80.92
2017-11-09T06:41:50.360Z,80.26
2017-11-09T06:42:30.924Z,79.02
2017-11-09T06:43:11.539Z,78.83
2017-11-09T06:43:52.116Z,77.97
2017-11-09T06:44:32.668Z,77.78
2017-11-09T06:45:13.247Z,77.49
2017-11-09T06:45:53.831Z,77.59
2017-11-09T06:46:34.405Z,77.3
2017-11-09T06:47:15.020Z,76.57
2017-11-09T06:47:55.592Z,76.73
2017-11-09T06:48:36.144Z,76.1
2017-11-09T06:49:16.704Z,76.2
2017-11-09T06:49:57.304Z,75.81
2017-11-09T06:50:37.926Z,75.53
2017-11-09T06:51:18.511Z,74.77
2017-11-09T06:51:59.109Z,74.57
2017-11-09T06:52:39.674Z,74.48
2017-11-09T06:53:20.249Z,74.19
2017-11-09T06:54:01.441Z,74.01
2017-11-09T06:54:42.237Z,73.62
2017-11-09T06:55:22.803Z,72.96
2017-11-09T06:56:03.511Z,72.57
2017-11-09T06:56:44.071Z,72.67
2017-11-09T06:57:24.669Z,72.38
2017-11-09T06:58:05.253Z,72.48
2017-11-09T06:58:46.296Z,72.48
2017-11-09T06:59:26.876Z,72
2017-11-09T07:00:07.537Z,71.72
2017-11-09T07:00:48.271Z,71.62
2017-11-09T07:01:29.048Z,71.62
2017-11-09T07:02:09.616Z,71.43
2017-11-09T07:02:50.915Z,71.37
2017-11-09T07:03:31.808Z,71.37
2017-11-09T07:04:12.421Z,71.04
2017-11-09T07:04:53.602Z,70.98
2017-11-09T07:05:34.657Z,70.7
2017-11-09T07:06:15.130Z,70.32
2017-11-09T07:06:55.736Z,70.98
2017-11-09T07:07:36.287Z,70.51
2017-11-09T07:08:17.541Z,70.22
2017-11-09T07:08:58.145Z,70.42
2017-11-09T07:09:38.716Z,70.03
2017-11-09T07:10:19.483Z,70.42
2017-11-09T07:10:59.957Z,69.74
2017-11-09T07:11:40.514Z,69.84
2017-11-09T07:12:21.110Z,69.84
2017-11-09T07:13:01.702Z,69.17
2017-11-09T07:13:42.271Z,69.37
2017-11-09T07:14:22.853Z,69.37
2017-11-09T07:15:03.426Z,68.88
2017-11-09T07:15:44.024Z,68.6
2017-11-09T07:16:24.610Z,68.88
2017-11-09T07:17:05.215Z,68.98
2017-11-09T07:17:45.813Z,68.98
2017-11-09T07:18:26.394Z,68.79
2017-11-09T07:19:06.958Z,68.98
2017-11-09T07:19:47.541Z,69.65
2017-11-09T07:20:28.139Z,69.56
2017-11-09T07:21:08.724Z,69.56
2017-11-09T07:21:49.324Z,69.56
2017-11-09T07:22:29.888Z,68.28
2017-11-09T07:23:10.452Z,67.9
2017-11-09T07:23:51.047Z,68.76
2017-11-09T07:24:31.613Z,69.14
2017-11-09T07:25:12.192Z,69.52
2017-11-09T07:25:52.805Z,69.43
2017-11-09T07:26:33.398Z,69.62
2017-11-09T07:27:13.959Z,70.47
2017-11-09T07:27:54.540Z,70.09
2017-11-09T07:28:35.117Z,70.47
2017-11-09T07:29:15.717Z,70.19
2017-11-09T07:29:56.312Z,70.19
2017-11-09T07:30:36.926Z,70.28
2017-11-09T07:31:17.511Z,70.09
2017-11-09T07:31:58.110Z,70.28
2017-11-09T07:32:38.677Z,69.43
2017-11-09T07:33:19.252Z,68.66
2017-11-09T07:33:59.813Z,68.09
2017-11-09T07:34:40.384Z,67.99
2017-11-09T07:35:20.981Z,68.63
2017-11-09T07:36:01.536Z,68.72
2017-11-09T07:36:42.111Z,69.58
2017-11-09T07:37:22.667Z,70.21
2017-11-09T07:38:03.237Z,70.88
2017-11-09T07:38:43.853Z,71.17
2017-11-09T07:39:24.412Z,71.45
2017-11-09T07:40:04.977Z,72.27
2017-11-09T07:40:45.559Z,72.65
2017-11-09T07:41:26.120Z,72.37
2017-11-09T07:42:06.741Z,72.94
2017-11-09T07:42:47.331Z,73.89
2017-11-09T07:43:27.908Z,74.04
2017-11-09T07:44:08.482Z,74.24
2017-11-09T07:44:49.065Z,74.99
2017-11-09T07:45:29.621Z,75.09
2017-11-09T07:46:10.214Z,75.09
2017-11-09T07:46:50.775Z,75.57
2017-11-09T07:47:31.393Z,75.95
2017-11-09T07:48:12.375Z,76.42
2017-11-09T07:48:52.760Z,76.33
2017-11-09T07:49:33.321Z,76.42
2017-11-09T07:50:13.981Z,77
2017-11-09T07:50:54.570Z,77.09
2017-11-09T07:51:35.132Z,77.09
2017-11-09T07:52:15.708Z,77.05
2017-11-09T07:52:56.285Z,77.53
2017-11-09T07:53:36.843Z,77.72
2017-11-09T07:54:17.433Z,78
2017-11-09T07:54:57.990Z,78.19
2017-11-09T07:55:38.565Z,78
2017-11-09T07:56:19.131Z,78.19
2017-11-09T07:56:59.712Z,78.67
2017-11-09T07:57:40.290Z,78.67
2017-11-09T07:58:21.011Z,78.38
2017-11-09T07:59:01.598Z,78.96
2017-11-09T07:59:42.156Z,79.33
2017-11-09T08:00:22.728Z,79.14
2017-11-09T08:01:03.323Z,78.77
2017-11-09T08:01:43.892Z,78.86
2017-11-09T08:02:24.462Z,79.52
2017-11-09T08:03:05.036Z,79.33
2017-11-09T08:03:45.608Z,79.62
2017-11-09T08:04:26.174Z,79.52
2017-11-09T08:05:06.736Z,79.43
2017-11-09T08:05:47.305Z,79.91
2017-11-09T08:06:27.898Z,80.05
2017-11-09T08:07:08.480Z,80
2017-11-09T08:07:49.041Z,80.38
2017-11-09T08:08:29.610Z,80.57
2017-11-09T08:09:10.186Z,80.47
2017-11-09T08:09:50.757Z,80.63
2017-11-09T08:10:31.342Z,80.19
2017-11-09T08:11:11.974Z,80.63
2017-11-09T08:11:52.549Z,80.95
2017-11-09T08:12:33.207Z,80.91
2017-11-09T08:13:13.773Z,80.72
2017-11-09T08:13:54.340Z,80.72
2017-11-09T08:14:35.036Z,81.2
2017-11-09T08:15:15.611Z,81.2
2017-11-09T08:15:56.185Z,81.2
2017-11-09T08:16:36.768Z,81.38
2017-11-09T08:17:17.540Z,81.2
2017-11-09T08:17:58.117Z,81.2
2017-11-09T08:18:38.710Z,81.86
2017-11-09T08:19:19.302Z,81.77
2017-11-09T08:19:59.895Z,81.58
2017-11-09T08:20:40.448Z,81.86
2017-11-09T08:21:21.043Z,82.43
2017-11-09T08:22:01.643Z,82.24
2017-11-09T08:22:42.202Z,81.96
2017-11-09T08:23:22.796Z,82.62
2017-11-09T08:24:03.376Z,82.62
2017-11-09T08:24:43.949Z,82.91
2017-11-09T08:25:24.549Z,83
2017-11-09T08:26:05.116Z,82.43
2017-11-09T08:26:45.693Z,82.53
2017-11-09T08:27:26.577Z,82.43
2017-11-09T08:28:07.727Z,82.53
2017-11-09T08:28:48.448Z,82.53
2017-11-09T08:29:29.062Z,82.24
2017-11-09T08:30:09.667Z,81.96
2017-11-09T08:30:50.268Z,81.96
2017-11-09T08:31:30.867Z,81.58
2017-11-09T08:32:11.423Z,81.58
2017-11-09T08:32:52.013Z,81.38
2017-11-09T08:33:33.377Z,81.86
2017-11-09T08:34:13.452Z,81.58
2017-11-09T08:34:54.090Z,81.86
2017-11-09T08:35:34.729Z,82.34
2017-11-09T08:36:15.295Z,82.34
2017-11-09T08:36:55.872Z,82.15
2017-11-09T08:37:36.445Z,82.24
2017-11-09T08:38:17.073Z,82.24
2017-11-09T08:38:57.648Z,82.15
2017-11-09T08:39:38.201Z,82.15
2017-11-09T08:40:18.771Z,82.62
2017-11-09T08:40:59.337Z,82.53
2017-11-09T08:41:39.917Z,82.62
2017-11-09T08:42:20.472Z,82.91
2017-11-09T08:43:01.039Z,82.53
2017-11-09T08:43:41.607Z,82.43